Time;durP1;ratioP1;P1;durP2;ratioP2;P2;SDS_P1;SDS_P2;PMS_P1;PMS_P2;Temp;Humidity;BMP_temperature;BMP_pressure;BME280_temperature;BME280_humidity;BME280_pressure;Samples;Min_cycle;Max_cycle;Signal;HPM_P1;HPM_P2
2021/09/22 00:01:19;;;;;;;10.15;6.95;;;;;;;6.17;71.67;98322.69;1753436;82;21010;-84
2021/09/22 00:03:46;;;;;;;10.93;6.58;;;;;;;6.18;71.29;98324.86;1763965;81;20997;-84
2021/09/22 00:06:12;;;;;;;9.95;6.83;;;;;;;6.19;71.24;98326.64;1779242;80;21729;-84
2021/09/22 00:08:39;;;;;;;10.45;7.50;;;;;;;6.20;71.29;98320.48;1775108;81;21016;-84
2021/09/22 00:11:06;;;;;;;11.45;6.85;;;;;;;6.20;71.47;98320.48;1734854;82;20956;-84
2021/09/22 00:13:32;;;;;;;10.82;7.28;;;;;;;6.17;71.52;98314.80;1718254;83;21489;-84
2021/09/22 00:15:59;;;;;;;11.28;6.37;;;;;;;6.16;71.21;98318.75;1755577;81;20940;-84
2021/09/22 00:18:26;;;;;;;9.55;6.40;;;;;;;6.13;71.09;98318.33;1751014;82;21000;-84
2021/09/22 00:20:52;;;;;;;9.20;6.58;;;;;;;6.12;71.12;98322.28;1742654;82;21026;-84
2021/09/22 00:23:19;;;;;;;9.60;6.58;;;;;;;6.11;71.38;98312.21;1740763;80;21014;-84
2021/09/22 00:25:46;;;;;;;11.33;6.87;;;;;;;6.10;71.39;98307.81;1741536;81;21436;-84
2021/09/22 00:28:12;;;;;;;11.60;7.67;;;;;;;6.08;71.39;98306.95;1732730;81;21032;-84
2021/09/22 00:30:39;;;;;;;11.55;7.22;;;;;;;6.10;71.39;98305.64;1739465;81;20986;-84
2021/09/22 00:33:08;;;;;;;10.90;6.47;;;;;;;6.12;71.68;98298.16;1751506;82;21060;-84
2021/09/22 00:35:37;;;;;;;11.63;7.00;;;;;;;6.12;71.27;98297.28;1727467;81;21036;-84
2021/09/22 00:38:06;;;;;;;10.23;6.90;;;;;;;6.11;71.29;98296.42;1729885;82;20983;-84
2021/09/22 00:40:33;;;;;;;10.03;6.80;;;;;;;6.12;71.58;98290.27;1736934;81;21015;-84
2021/09/22 00:43:01;;;;;;;9.63;6.40;;;;;;;6.12;71.41;98290.27;1723245;83;20975;-84
2021/09/22 00:45:30;;;;;;;10.53;7.20;;;;;;;6.11;71.37;98288.95;1746678;82;21010;-84
2021/09/22 00:47:56;;;;;;;8.93;6.25;;;;;;;6.13;71.62;98281.48;1746623;82;21025;-84
2021/09/22 00:50:25;;;;;;;10.43;6.30;;;;;;;6.17;71.71;98288.48;1746929;81;21003;-84
2021/09/22 00:52:52;;;;;;;9.50;6.70;;;;;;;6.17;71.95;98284.53;1761963;81;20945;-84
2021/09/22 00:55:19;;;;;;;9.83;6.45;;;;;;;6.18;71.56;98281.00;1762258;81;21413;-84
2021/09/22 00:57:50;;;;;;;9.98;6.05;;;;;;;6.18;71.64;98271.80;1747941;81;21033;-84
2021/09/22 01:00:26;;;;;;;7.70;5.05;;;;;;;6.23;71.62;98265.63;1734140;81;21012;-84
2021/09/22 01:02:53;;;;;;;6.72;4.53;;;;;;;6.24;71.79;98270.89;1723027;80;21006;-84
2021/09/22 01:05:24;;;;;;;7.97;4.83;;;;;;;6.25;71.91;98260.78;1747236;81;21045;-84
2021/09/22 01:07:52;;;;;;;5.70;4.33;;;;;;;6.32;72.05;98255.03;1722859;83;21308;-84
2021/09/22 01:10:20;;;;;;;7.87;5.20;;;;;;;6.33;71.96;98257.66;1691113;84;21051;-84
2021/09/22 01:12:47;;;;;;;7.85;4.65;;;;;;;6.37;71.92;98247.97;1690276;85;21026;-84
2021/09/22 01:15:31;;;;;;;7.60;4.60;;;;;;;6.44;72.10;98240.89;1699754;82;20983;-84
2021/09/22 01:17:58;;;;;;;7.17;4.62;;;;;;;6.52;72.10;98234.23;1736518;82;20983;-84
2021/09/22 01:20:28;;;;;;;7.35;4.47;;;;;;;6.58;72.20;98232.86;1736458;82;20999;-84
2021/09/22 01:22:57;;;;;;;6.92;4.50;;;;;;;6.56;71.93;98223.65;1736581;82;20991;-84
2021/09/22 01:25:27;;;;;;;7.97;5.55;;;;;;;6.53;71.09;98222.81;1706612;82;20997;-84
2021/09/22 01:27:58;;;;;;;9.03;5.97;;;;;;;6.54;70.98;98228.50;1754310;80;20991;-84
2021/09/22 01:30:27;;;;;;;7.92;5.90;;;;;;;6.53;70.78;98214.48;1744635;82;21106;-84
2021/09/22 01:32:59;;;;;;;7.22;5.92;;;;;;;6.54;70.46;98216.65;1744768;82;21025;-84
2021/09/22 01:35:38;;;;;;;8.38;6.00;;;;;;;6.52;70.36;98212.71;1724311;80;20996;-84
2021/09/22 01:38:11;;;;;;;10.28;6.15;;;;;;;6.51;70.38;98212.75;1764471;81;21083;-84
2021/09/22 01:41:05;;;;;;;9.18;6.45;;;;;;;6.45;70.57;98213.67;1743512;81;21010;-84
2021/09/22 01:43:37;;;;;;;8.78;5.65;;;;;;;6.40;70.76;98208.43;1744630;82;21054;-83
2021/09/22 01:46:06;;;;;;;8.83;6.53;;;;;;;6.38;70.61;98201.00;1752819;81;21027;-83
2021/09/22 01:48:36;;;;;;;8.75;6.00;;;;;;;6.38;70.69;98197.05;1764130;80;21067;-84
2021/09/22 01:51:05;;;;;;;10.38;6.62;;;;;;;6.36;70.83;98193.58;1724091;82;20996;-83
2021/09/22 01:53:35;;;;;;;8.50;6.10;;;;;;;6.35;70.76;98193.13;1715350;83;20968;-84
2021/09/22 01:56:04;;;;;;;7.17;5.75;;;;;;;6.36;71.41;98189.63;1737704;81;21045;-84
2021/09/22 01:58:31;;;;;;;8.60;6.12;;;;;;;6.36;71.29;98184.80;1775031;81;20986;-83
2021/09/22 02:01:04;;;;;;;10.65;6.78;;;;;;;6.37;71.41;98187.84;1774597;81;21053;-84
2021/09/22 02:03:33;;;;;;;9.55;7.00;;;;;;;6.34;71.89;98188.32;1749925;80;21065;-84
2021/09/22 02:06:02;;;;;;;9.00;5.95;;;;;;;6.36;71.15;98186.11;1742982;82;21054;-84
2021/09/22 02:08:30;;;;;;;10.70;6.42;;;;;;;6.31;71.81;98185.70;1744845;82;21041;-84
2021/09/22 02:10:58;;;;;;;10.23;6.55;;;;;;;6.31;71.73;98184.85;1759208;81;20992;-84
2021/09/22 02:13:28;;;;;;;9.83;6.47;;;;;;;6.32;71.89;98183.50;1727390;82;21062;-84
2021/09/22 02:15:55;;;;;;;9.88;6.67;;;;;;;6.33;71.52;98182.63;1734958;82;21010;-84
2021/09/22 02:18:26;;;;;;;8.83;6.55;;;;;;;6.34;71.46;98184.80;1726089;82;21479;-84
2021/09/22 02:20:54;;;;;;;8.70;6.28;;;;;;;6.32;71.37;98184.81;1718036;83;20988;-84
2021/09/22 02:23:25;;;;;;;9.20;6.42;;;;;;;6.29;71.78;98177.39;1751896;81;21414;-84
2021/09/22 02:25:54;;;;;;;11.12;7.17;;;;;;;6.30;71.58;98180.45;1742966;82;21377;-84
2021/09/22 02:28:21;;;;;;;9.53;6.80;;;;;;;6.26;72.03;98183.99;1736655;82;21391;-84
2021/09/22 02:30:48;;;;;;;11.73;7.28;;;;;;;6.27;71.54;98179.19;1736606;83;20987;-84
2021/09/22 02:33:15;;;;;;;10.40;6.28;;;;;;;6.28;71.48;98172.59;1713821;83;21050;-84
2021/09/22 02:35:42;;;;;;;10.72;6.83;;;;;;;6.30;71.94;98173.44;1745138;82;21433;-84
2021/09/22 02:38:17;;;;;;;9.60;6.45;;;;;;;6.30;71.71;98164.23;1736301;82;21457;-84
2021/09/22 02:40:47;;;;;;;9.28;6.70;;;;;;;6.28;71.79;98164.70;1723660;82;20985;-84
2021/09/22 02:43:14;;;;;;;9.70;6.35;;;;;;;6.30;71.61;98169.92;1735131;82;20990;-84
2021/09/22 02:45:41;;;;;;;10.43;6.37;;;;;;;6.30;71.77;98164.66;1720471;83;21008;-84
2021/09/22 02:48:08;;;;;;;8.90;6.60;;;;;;;6.29;71.90;98159.86;1694672;83;21065;-84
2021/09/22 02:50:37;;;;;;;9.73;6.37;;;;;;;6.30;71.72;98156.33;1726779;82;21040;-84
2021/09/22 02:53:03;;;;;;;9.43;6.72;;;;;;;6.32;71.51;98155.00;1703852;82;21011;-84
2021/09/22 02:55:30;;;;;;;8.70;5.97;;;;;;;6.33;71.46;98151.48;1731540;81;21002;-84
2021/09/22 02:57:57;;;;;;;10.38;6.25;;;;;;;6.33;71.71;98151.05;1777487;81;21428;-84
2021/09/22 03:00:24;;;;;;;8.60;6.15;;;;;;;6.35;71.68;98149.69;1777567;81;21025;-84
2021/09/22 03:02:52;;;;;;;9.33;6.62;;;;;;;6.36;71.61;98139.61;1777289;81;21039;-84
2021/09/22 03:05:22;;;;;;;8.90;6.20;;;;;;;6.40;71.56;98143.08;1756539;81;20950;-84
2021/09/22 03:07:49;;;;;;;8.13;5.75;;;;;;;6.42;71.55;98147.44;1743547;81;21489;-84
2021/09/22 03:10:16;;;;;;;10.25;5.83;;;;;;;6.41;71.93;98143.50;1746751;80;21010;-84
2021/09/22 03:12:43;;;;;;;9.70;7.12;;;;;;;6.45;71.45;98149.17;1753331;82;21033;-84
2021/09/22 03:15:10;;;;;;;8.73;6.47;;;;;;;6.46;71.42;98143.89;1753386;82;20962;-84
2021/09/22 03:17:37;;;;;;;9.53;6.65;;;;;;;6.52;71.46;98136.34;1760884;80;20994;-84
2021/09/22 03:20:05;;;;;;;11.28;6.15;;;;;;;6.55;71.38;98127.55;1753313;81;20982;-84
2021/09/22 03:22:32;;;;;;;10.55;6.78;;;;;;;6.56;71.51;98121.41;1753320;82;21050;-84
2021/09/22 03:25:06;;;;;;;8.43;6.62;;;;;;;6.59;71.57;98114.77;1752176;82;21081;-85
2021/09/22 03:27:33;;;;;;;10.55;6.67;;;;;;;6.60;71.80;98116.51;1729870;82;21010;-84
2021/09/22 03:30:00;;;;;;;9.53;5.83;;;;;;;6.64;71.32;98120.00;1740760;81;20994;-84
2021/09/22 03:32:27;;;;;;;9.38;6.58;;;;;;;6.67;71.24;98119.95;1730185;82;21067;-84
2021/09/22 03:34:53;;;;;;;10.68;6.30;;;;;;;6.68;71.27;98113.81;1723498;83;21073;-84
2021/09/22 03:37:20;;;;;;;11.25;6.80;;;;;;;6.70;71.15;98111.59;1723681;83;20973;-84
2021/09/22 03:39:47;;;;;;;10.35;6.37;;;;;;;6.73;71.16;98110.22;1723559;83;21053;-84
2021/09/22 03:42:14;;;;;;;9.23;6.25;;;;;;;6.78;71.36;98118.52;1750924;81;20986;-84
2021/09/22 03:44:40;;;;;;;16.65;7.50;;;;;;;6.82;71.19;98125.03;1750441;81;20989;-84
2021/09/22 03:47:07;;;;;;;9.85;6.72;;;;;;;6.83;71.40;98112.31;1743960;80;21033;-85
2021/09/22 03:49:35;;;;;;;9.85;6.25;;;;;;;6.86;71.55;98107.45;1765679;79;21076;-84
2021/09/22 03:52:04;;;;;;;8.43;6.17;;;;;;;6.87;71.70;98094.69;1778198;80;21041;-84
2021/09/22 03:54:31;;;;;;;10.43;6.40;;;;;;;6.89;71.49;98087.63;1759972;81;21098;-84
2021/09/22 03:56:58;;;;;;;8.90;6.45;;;;;;;6.92;71.62;98086.28;1730316;82;21008;-84
2021/09/22 03:59:25;;;;;;;12.80;6.60;;;;;;;6.96;71.70;98084.03;1756236;80;21423;-84
2021/09/22 04:01:53;;;;;;;9.58;6.78;;;;;;;6.96;71.65;98090.63;1724314;82;20990;-84
2021/09/22 04:04:19;;;;;;;11.28;7.20;;;;;;;6.98;71.34;98108.59;1723563;83;21018;-84
2021/09/22 04:06:46;;;;;;;8.73;6.05;;;;;;;7.00;71.39;98108.57;1723475;83;21330;-84
2021/09/22 04:09:15;;;;;;;10.15;7.12;;;;;;;7.03;71.59;98107.22;1723506;83;20982;-84
2021/09/22 04:11:43;;;;;;;12.80;6.65;;;;;;;7.05;71.18;98109.84;1747470;81;21012;-84
2021/09/22 04:14:13;;;;;;;9.33;6.78;;;;;;;7.07;71.12;98110.69;1764876;80;20984;-84
2021/09/22 04:16:40;;;;;;;10.15;6.30;;;;;;;7.08;71.27;98110.67;1764969;80;21052;-84
2021/09/22 04:19:07;;;;;;;12.73;6.47;;;;;;;7.09;71.28;98130.85;1755348;81;21386;-84
2021/09/22 04:21:34;;;;;;;9.80;6.58;;;;;;;7.09;71.38;98135.23;1722224;82;21020;-84
2021/09/22 04:24:01;;;;;;;29.57;14.18;;;;;;;7.10;71.41;98139.17;1757437;81;20984;-84
2021/09/22 04:26:28;;;;;;;40.65;17.67;;;;;;;7.13;71.48;98150.13;1745272;81;21049;-84
2021/09/22 04:28:57;;;;;;;42.83;18.25;;;;;;;7.15;71.54;98136.50;1747183;81;20998;-85
2021/09/22 04:31:42;;;;;;;29.20;14.87;;;;;;;7.14;71.73;98122.87;1761835;81;21034;-85
2021/09/22 04:34:27;;;;;;;39.25;16.27;;;;;;;7.15;71.98;98127.70;1775430;81;20995;-85
2021/09/22 04:37:13;;;;;;;33.35;14.80;;;;;;;7.14;71.84;98128.14;1715058;84;21074;-85
2021/09/22 04:39:58;;;;;;;31.77;14.03;;;;;;;7.18;72.29;98125.89;1715397;84;21482;-84
2021/09/22 04:42:43;;;;;;;23.55;11.48;;;;;;;7.24;72.44;98127.58;1715201;84;21086;-84
2021/09/22 04:45:29;;;;;;;27.52;11.55;;;;;;;7.29;73.41;98130.14;1731609;81;21404;-84
2021/09/22 04:48:15;;;;;;;24.92;11.83;;;;;;;7.33;73.35;98127.89;1684511;85;21057;-85
2021/09/22 04:51:01;;;;;;;18.48;8.63;;;;;;;7.37;73.78;98138.39;1684146;85;21122;-84
2021/09/22 04:53:46;;;;;;;15.15;7.78;;;;;;;7.40;74.35;98137.00;1720406;82;21479;-84
2021/09/22 04:56:33;;;;;;;12.78;8.00;;;;;;;7.44;74.77;98132.58;1744886;82;21086;-84
2021/09/22 04:59:20;;;;;;;16.10;7.67;;;;;;;7.48;74.70;98143.48;1664413;86;21080;-84
2021/09/22 05:02:05;;;;;;;16.35;9.15;;;;;;;7.59;75.35;98146.41;1657683;86;21064;-84
2021/09/22 05:04:51;;;;;;;13.15;7.72;;;;;;;7.69;75.44;98133.53;1728347;81;21024;-84
2021/09/22 05:07:36;;;;;;;18.23;7.90;;;;;;;7.76;75.75;98124.60;1774698;81;22091;-84
2021/09/22 05:10:21;;;;;;;15.48;8.40;;;;;;;7.80;75.76;98135.97;1774869;80;22229;-84
2021/09/22 05:13:07;;;;;;;18.20;10.18;;;;;;;7.84;76.29;98134.18;1774130;80;21672;-84
2021/09/22 05:15:52;;;;;;;14.25;9.55;;;;;;;7.87;76.15;98138.06;1764241;81;21032;-84
2021/09/22 05:18:37;;;;;;;14.45;8.80;;;;;;;7.89;76.18;98136.30;1764000;81;21100;-84
2021/09/22 05:21:22;;;;;;;17.25;10.38;;;;;;;7.89;75.96;98131.87;1764745;80;21036;-84
2021/09/22 05:24:07;;;;;;;17.80;9.45;;;;;;;7.92;76.40;98137.54;1764734;81;21060;-82
2021/09/22 05:26:53;;;;;;;13.38;9.45;;;;;;;7.95;76.42;98137.50;1751549;81;21428;-85
2021/09/22 05:29:38;;;;;;;15.15;9.83;;;;;;;7.95;76.07;98127.38;1762727;81;20967;-84
2021/09/22 05:32:23;;;;;;;11.90;8.73;;;;;;;7.92;75.91;98128.30;1772585;81;21729;-85
2021/09/22 05:35:09;;;;;;;15.48;9.45;;;;;;;7.87;77.04;98120.48;1764973;81;21001;-84
2021/09/22 05:37:54;;;;;;;14.10;9.73;;;;;;;7.89;76.31;98123.10;1759965;80;21042;-84
2021/09/22 05:40:39;;;;;;;16.65;10.65;;;;;;;7.90;76.38;98116.92;1744653;82;21022;-84
2021/09/22 05:43:24;;;;;;;16.17;10.13;;;;;;;7.90;76.75;98119.55;1744794;82;21027;-85
2021/09/22 05:46:09;;;;;;;14.73;9.75;;;;;;;7.88;76.64;98124.85;1745154;82;21475;-84
2021/09/22 05:48:55;;;;;;;12.93;9.13;;;;;;;7.89;76.09;98131.02;1744930;82;21098;-84
2021/09/22 05:51:40;;;;;;;16.87;9.58;;;;;;;7.84;76.03;98125.80;1764967;81;20985;-84
2021/09/22 05:54:25;;;;;;;14.38;9.05;;;;;;;7.83;76.11;98125.37;1764888;81;20993;-84
2021/09/22 05:57:10;;;;;;;14.43;9.85;;;;;;;7.83;76.50;98124.50;1765168;81;21036;-84
2021/09/22 05:59:55;;;;;;;14.47;9.50;;;;;;;7.82;76.08;98129.36;1747281;80;21002;-84
2021/09/22 06:02:40;;;;;;;15.40;9.88;;;;;;;7.79;76.59;98135.55;1715273;84;20990;-84
2021/09/22 06:05:24;;;;;;;15.63;9.83;;;;;;;7.78;76.27;98130.71;1665706;86;21505;-84
2021/09/22 06:08:09;;;;;;;15.08;10.03;;;;;;;7.74;76.36;98136.08;1715439;81;21012;-84
2021/09/22 06:10:54;;;;;;;18.95;9.95;;;;;;;7.71;76.82;98138.31;1765020;81;21454;-84
2021/09/22 06:13:23;;;;;;;16.00;9.98;;;;;;;7.72;76.69;98141.84;1763534;81;21447;-84
2021/09/22 06:15:52;;;;;;;17.98;10.48;;;;;;;7.74;77.50;98142.23;1755602;81;21083;-85
2021/09/22 06:18:24;;;;;;;17.98;11.85;;;;;;;7.75;76.61;98130.78;1756477;81;21049;-84
2021/09/22 06:20:51;;;;;;;17.57;10.50;;;;;;;7.76;77.06;98125.92;1751615;81;21324;-83
2021/09/22 06:23:18;;;;;;;15.98;10.13;;;;;;;7.77;77.49;98126.80;1742102;81;21039;-84
2021/09/22 06:25:45;;;;;;;16.57;10.82;;;;;;;7.76;77.32;98119.77;1746646;82;21390;-85
2021/09/22 06:28:11;;;;;;;15.10;10.23;;;;;;;7.78;77.33;98120.63;1749340;80;21019;-82
2021/09/22 06:30:39;;;;;;;15.88;10.48;;;;;;;7.78;78.11;98116.67;1707665;82;21426;-82
2021/09/22 06:33:05;;;;;;;18.30;11.35;;;;;;;7.77;77.15;98114.94;1733051;82;21000;-81
2021/09/22 06:35:34;;;;;;;26.42;14.28;;;;;;;7.79;77.27;98102.58;1755820;81;20979;-83
2021/09/22 06:38:02;;;;;;;61.83;34.75;;;;;;;7.83;77.17;98103.39;1743068;81;21601;-83
2021/09/22 06:40:34;;;;;;;19.27;12.30;;;;;;;7.84;77.06;98099.88;1745229;80;21005;-81
2021/09/22 06:43:04;;;;;;;19.20;9.93;;;;;;;7.90;77.36;98099.77;1719725;83;21173;-86
2021/09/22 06:45:31;;;;;;;17.80;9.38;;;;;;;7.97;77.89;98087.34;1695351;84;22258;-84
2021/09/22 06:47:58;;;;;;;14.50;9.48;;;;;;;7.99;77.01;98088.17;1717405;82;20989;-79
2021/09/22 06:50:25;;;;;;;16.15;10.35;;;;;;;8.02;77.04;98090.77;1696850;84;21000;-80
2021/09/22 06:52:52;;;;;;;14.20;8.85;;;;;;;8.09;77.01;98098.13;1724312;82;21099;-82
2021/09/22 06:55:18;;;;;;;14.03;9.05;;;;;;;8.13;76.94;98101.11;1723705;82;20985;-81
2021/09/22 06:57:46;;;;;;;13.13;8.53;;;;;;;8.13;77.00;98107.70;1737927;82;21450;-81
2021/09/22 07:00:15;;;;;;;15.30;9.95;;;;;;;8.15;77.11;98103.30;1728434;81;20992;-81
2021/09/22 07:02:42;;;;;;;14.38;9.08;;;;;;;8.21;76.84;98096.57;1697892;83;20973;-81
2021/09/22 07:05:11;;;;;;;13.80;9.53;;;;;;;8.26;76.81;98096.50;1698021;82;21060;-81
2021/09/22 07:07:39;;;;;;;16.32;9.73;;;;;;;8.35;76.95;98100.73;1754356;81;21013;-80
2021/09/22 07:10:08;;;;;;;16.60;9.65;;;;;;;8.44;76.94;98104.52;1754209;81;21704;-80
2021/09/22 07:12:34;;;;;;;15.58;9.25;;;;;;;8.51;76.83;98097.36;1739653;81;21576;-81
2021/09/22 07:15:01;;;;;;;14.25;9.13;;;;;;;8.61;76.61;98098.94;1730200;82;21046;-81
2021/09/22 07:17:29;;;;;;;14.13;9.50;;;;;;;8.70;76.50;98102.72;1733059;82;20987;-81
2021/09/22 07:19:55;;;;;;;18.00;10.53;;;;;;;8.81;76.29;98102.95;1716957;83;21041;-81
2021/09/22 07:22:22;;;;;;;15.13;10.03;;;;;;;8.89;76.18;98101.47;1720072;82;20955;-81
2021/09/22 07:24:49;;;;;;;17.27;10.15;;;;;;;8.96;76.12;98093.81;1752893;80;20965;-81
2021/09/22 07:27:17;;;;;;;15.45;9.83;;;;;;;9.05;76.40;98088.80;1753495;81;20996;-81
2021/09/22 07:29:46;;;;;;;12.53;9.45;;;;;;;9.16;76.29;98082.81;1746166;81;20958;-81
2021/09/22 07:32:13;;;;;;;14.70;8.83;;;;;;;9.33;76.10;98082.87;1729488;82;21442;-81
2021/09/22 07:34:39;;;;;;;15.95;8.33;;;;;;;9.36;75.24;98082.37;1737602;81;21028;-80
2021/09/22 07:37:09;;;;;;;14.05;8.68;;;;;;;9.39;74.80;98085.39;1761545;81;21006;-81
2021/09/22 07:39:37;;;;;;;12.93;8.13;;;;;;;9.45;74.72;98079.06;1761202;81;21456;-79
2021/09/22 07:42:03;;;;;;;18.07;10.40;;;;;;;9.56;75.31;98080.14;1761268;80;21044;-81
2021/09/22 07:44:30;;;;;;;18.87;11.65;;;;;;;9.67;75.63;98073.28;1772987;81;20999;-80
2021/09/22 07:46:57;;;;;;;20.10;12.90;;;;;;;9.79;76.11;98076.92;1775033;81;21021;-80
2021/09/22 07:49:24;;;;;;;15.90;10.60;;;;;;;9.96;76.16;98076.50;1752519;81;21069;-81
2021/09/22 07:51:51;;;;;;;17.00;10.32;;;;;;;10.09;75.05;98070.89;1756518;81;20970;-80
2021/09/22 07:54:17;;;;;;;12.07;9.03;;;;;;;9.99;75.27;98070.25;1783339;80;21002;-79
2021/09/22 07:56:44;;;;;;;13.03;8.85;;;;;;;9.98;74.65;98072.05;1779863;80;21012;-80
2021/09/22 07:59:13;;;;;;;16.85;11.20;;;;;;;10.10;75.29;98069.53;1754483;80;21010;-79
2021/09/22 08:01:39;;;;;;;20.08;11.70;;;;;;;10.21;75.34;98064.41;1752557;81;21060;-80
2021/09/22 08:04:06;;;;;;;20.32;13.00;;;;;;;10.28;74.94;98063.31;1752690;82;21520;-79
2021/09/22 08:06:35;;;;;;;19.17;13.32;;;;;;;10.37;74.95;98062.18;1739644;82;21056;-80
2021/09/22 08:09:02;;;;;;;23.38;13.78;;;;;;;10.43;74.88;98058.94;1761793;81;20993;-79
2021/09/22 08:11:29;;;;;;;21.00;13.83;;;;;;;10.50;74.48;98057.47;1764417;81;21081;-79
2021/09/22 08:13:56;;;;;;;22.22;13.98;;;;;;;10.52;74.49;98052.98;1765888;81;21072;-79
2021/09/22 08:16:23;;;;;;;20.85;14.30;;;;;;;10.61;74.62;98050.52;1759461;81;21448;-79
2021/09/22 08:18:49;;;;;;;23.32;14.75;;;;;;;10.68;74.53;98052.94;1760872;81;21398;-80
2021/09/22 08:21:16;;;;;;;21.45;13.45;;;;;;;10.72;74.06;98044.91;1759241;81;21528;-79
2021/09/22 08:23:43;;;;;;;19.17;13.72;;;;;;;10.71;73.47;98051.13;1726865;82;21502;-79
2021/09/22 08:26:10;;;;;;;20.25;13.88;;;;;;;10.67;73.25;98045.06;1746010;82;20986;-79
2021/09/22 08:28:37;;;;;;;23.30;14.10;;;;;;;10.68;73.63;98043.66;1767184;80;21083;-79
2021/09/22 08:31:04;;;;;;;25.15;14.07;;;;;;;10.72;73.80;98040.48;1756668;81;20999;-78
2021/09/22 08:33:31;;;;;;;21.45;14.50;;;;;;;10.76;73.24;98035.95;1756309;82;22228;-80
2021/09/22 08:35:58;;;;;;;21.57;14.55;;;;;;;10.73;73.46;98035.59;1756464;82;20949;-79
2021/09/22 08:38:25;;;;;;;21.45;14.13;;;;;;;10.76;73.47;98035.95;1756333;81;21012;-79
2021/09/22 08:40:53;;;;;;;42.80;25.88;;;;;;;10.77;73.64;98035.04;1746440;81;20970;-79
2021/09/22 08:43:25;;;;;;;24.87;14.40;;;;;;;10.76;73.07;98024.88;1738316;82;21022;-79
2021/09/22 08:45:52;;;;;;;21.77;14.33;;;;;;;10.76;72.76;98026.68;1752315;82;20992;-80
2021/09/22 08:54:40;;;;;;;25.10;16.17;;;;;;;10.67;72.66;98023.85;1578381;89;21063;-79
2021/09/22 08:57:06;;;;;;;27.52;16.35;;;;;;;10.64;73.25;98017.30;1631867;87;21043;-79
2021/09/22 08:59:33;;;;;;;24.67;16.82;;;;;;;10.73;73.58;98008.20;1601039;90;20985;-79
2021/09/22 09:02:13;;;;;;;23.62;15.63;;;;;;;10.82;73.14;98010.13;1612118;85;21190;-79
2021/09/22 09:04:43;;;;;;;28.42;16.90;;;;;;;10.90;72.90;98010.34;1692048;85;21480;-79
2021/09/22 09:07:10;;;;;;;26.60;16.55;;;;;;;10.96;72.68;98006.17;1735229;80;22087;-77
2021/09/22 09:09:41;;;;;;;24.12;16.42;;;;;;;11.02;72.64;98007.33;1776539;81;21028;-79
2021/09/22 09:12:19;;;;;;;23.45;15.10;;;;;;;11.01;72.75;97996.77;1773649;81;21057;-80
2021/09/22 09:14:55;;;;;;;25.65;17.37;;;;;;;11.06;72.86;97991.73;1768755;81;21047;-79
2021/09/22 09:17:49;;;;;;;21.68;14.87;;;;;;;11.09;72.71;97994.27;1738268;82;21725;-85
2021/09/22 09:20:24;;;;;;;23.18;15.78;;;;;;;11.06;72.15;97994.39;1738728;82;21066;-87
2021/09/22 09:23:10;;;;;;;24.85;15.68;;;;;;;11.14;72.27;97994.14;1776197;80;20942;-85
2021/09/22 09:25:42;;;;;;;24.43;16.57;;;;;;;11.27;72.21;97997.27;1759625;81;20999;-86
2021/09/22 09:28:22;;;;;;;25.60;16.45;;;;;;;11.33;71.44;97992.19;1748207;82;20962;-88
2021/09/22 09:30:53;;;;;;;27.00;17.00;;;;;;;11.30;71.48;97991.84;1750538;81;21019;-88
2021/09/22 09:33:41;;;;;;;25.57;16.07;;;;;;;11.42;71.68;97997.68;1736033;83;21400;-89
2021/09/22 09:36:36;;;;;;;25.62;16.97;;;;;;;11.53;71.53;97996.85;1749973;82;21017;-88
2021/09/22 09:39:29;;;;;;;26.62;16.90;;;;;;;11.56;70.22;97993.23;1776963;79;21023;-89
2021/09/22 09:41:54;;;;;;;26.85;17.30;;;;;;;11.57;70.32;97996.28;1780656;80;20983;-90
2021/09/22 09:44:28;;;;;;;22.50;15.75;;;;;;;11.57;70.68;98003.80;1780781;80;20996;-89
2021/09/22 09:47:08;;;;;;;27.77;17.00;;;;;;;11.59;70.48;97993.14;1780892;80;21035;-89
2021/09/22 09:49:37;;;;;;;29.67;16.90;;;;;;;11.56;70.60;97999.41;1780426;80;21097;-90
2021/09/22 09:52:04;;;;;;;24.00;14.78;;;;;;;11.55;70.79;97995.48;1765047;80;21000;-88
2021/09/22 09:54:36;;;;;;;21.23;13.65;;;;;;;11.54;70.48;97999.06;1738387;81;21416;-87
2021/09/22 09:57:19;;;;;;;20.32;12.25;;;;;;;11.55;70.71;97996.33;1751989;82;20962;-87
2021/09/22 09:59:52;;;;;;;19.37;11.68;;;;;;;11.58;70.54;98001.55;1736809;83;21019;-87
2021/09/22 10:02:29;;;;;;;13.10;10.30;;;;;;;11.64;70.20;97992.97;1770158;80;21022;-88
2021/09/22 10:04:57;;;;;;;16.42;10.85;;;;;;;11.72;70.07;97990.92;1756269;82;21105;-87
2021/09/22 10:07:25;;;;;;;16.32;11.57;;;;;;;11.83;70.31;97994.55;1749745;81;21003;-88
2021/09/22 10:09:52;;;;;;;15.50;10.72;;;;;;;11.97;70.38;97992.28;1748196;82;21063;-88
2021/09/22 10:12:19;;;;;;;14.65;10.25;;;;;;;12.15;70.29;97991.23;1765954;81;21033;-88
2021/09/22 10:14:48;;;;;;;16.48;10.78;;;;;;;12.36;70.09;97985.59;1723094;82;21031;-88
2021/09/22 10:17:17;;;;;;;15.80;10.72;;;;;;;12.54;69.10;97980.05;1746205;82;21006;-89
2021/09/22 10:19:47;;;;;;;13.88;10.72;;;;;;;12.79;69.61;97980.91;1752532;81;21446;-88
2021/09/22 10:22:15;;;;;;;13.05;9.93;;;;;;;13.13;69.25;97970.72;1771907;79;21038;-88
2021/09/22 10:24:43;;;;;;;14.50;10.28;;;;;;;13.52;68.93;97971.81;1745599;82;21010;-87
2021/09/22 10:27:15;;;;;;;15.38;10.85;;;;;;;13.87;67.75;97973.44;1738808;82;20955;-86
2021/09/22 10:29:58;;;;;;;14.70;10.35;;;;;;;14.27;65.97;97975.30;1738658;81;21347;-87
2021/09/22 10:32:47;;;;;;;13.95;10.43;;;;;;;14.57;65.98;97973.50;1737965;82;21041;-88
2021/09/22 10:35:30;;;;;;;13.85;10.23;;;;;;;14.63;62.82;97971.42;1738426;82;21475;-87
2021/09/22 10:38:23;;;;;;;15.23;9.65;;;;;;;14.49;62.57;97968.52;1738652;82;21435;-87
2021/09/22 10:40:59;;;;;;;13.98;9.85;;;;;;;14.47;63.94;97969.05;1738898;82;21046;-87
2021/09/22 10:43:31;;;;;;;13.83;10.25;;;;;;;14.24;62.76;97969.16;1741438;82;21342;-87
2021/09/22 10:46:11;;;;;;;12.70;9.83;;;;;;;13.98;63.46;97967.19;1755478;81;21079;-87
2021/09/22 10:48:57;;;;;;;14.13;9.68;;;;;;;13.77;62.71;97968.11;1746309;81;20996;-89
2021/09/22 10:51:44;;;;;;;15.50;10.68;;;;;;;13.58;64.00;97964.44;1751684;81;21384;-89
2021/09/22 10:54:22;;;;;;;18.87;10.70;;;;;;;13.40;64.06;97971.38;1708949;84;21137;-89
2021/09/22 10:57:01;;;;;;;15.25;10.35;;;;;;;13.23;64.50;97965.87;1722700;83;21009;-89
2021/09/22 10:59:39;;;;;;;15.93;11.15;;;;;;;13.07;64.78;97965.17;1713079;81;21022;-90
2021/09/22 11:02:11;;;;;;;18.27;11.18;;;;;;;12.89;64.81;97967.66;1760235;80;20987;-90
2021/09/22 11:05:00;;;;;;;16.60;10.65;;;;;;;12.72;65.25;97967.44;1756351;82;20989;-89
2021/09/22 11:08:07;;;;;;;15.78;10.85;;;;;;;12.65;65.40;97964.14;1759337;81;20993;-90
2021/09/22 11:10:46;;;;;;;14.83;10.55;;;;;;;12.52;66.34;97965.96;1769059;81;21941;-90
2021/09/22 11:13:32;;;;;;;13.30;10.32;;;;;;;12.41;65.96;97962.37;1753761;81;21009;-89
2021/09/22 11:16:12;;;;;;;18.12;10.10;;;;;;;12.33;66.16;97952.96;1755253;81;21013;-90
2021/09/22 11:18:48;;;;;;;15.65;9.85;;;;;;;12.23;66.54;97962.59;1751101;81;21073;-88
2021/09/22 11:21:22;;;;;;;13.55;10.38;;;;;;;12.03;66.85;97959.30;1744746;80;21053;-89
2021/09/22 11:23:51;;;;;;;14.23;10.30;;;;;;;12.01;67.00;97964.66;1764849;81;21031;-83
2021/09/22 11:26:18;;;;;;;13.48;9.80;;;;;;;11.96;67.04;97963.95;1756756;81;21011;-82
2021/09/22 11:28:52;;;;;;;14.33;10.75;;;;;;;11.93;67.37;97964.09;1733915;82;21090;-83
2021/09/22 11:31:21;;;;;;;15.27;10.30;;;;;;;11.88;67.72;97958.08;1752858;82;21020;-83
2021/09/22 11:33:47;;;;;;;14.58;10.38;;;;;;;11.79;67.92;97963.70;1752790;82;21043;-83
2021/09/22 11:36:15;;;;;;;15.55;10.65;;;;;;;11.72;67.80;97958.59;1759630;80;21031;-83
2021/09/22 11:38:42;;;;;;;17.10;11.35;;;;;;;11.64;68.45;97959.34;1761244;81;21485;-87
2021/09/22 11:41:13;;;;;;;16.80;10.60;;;;;;;11.57;68.72;97963.11;1761175;81;20989;-87
2021/09/22 11:43:40;;;;;;;16.17;9.70;;;;;;;11.53;69.53;97963.67;1748755;81;21036;-86
2021/09/22 11:46:07;;;;;;;13.95;10.10;;;;;;;11.50;69.64;97961.11;1748565;81;21133;-85
2021/09/22 11:48:39;;;;;;;14.05;10.60;;;;;;;11.44;70.02;97962.21;1752455;81;21112;-86
2021/09/22 11:51:12;;;;;;;19.35;13.85;;;;;;;11.36;70.41;97949.65;1762381;80;21014;-86
2021/09/22 11:53:40;;;;;;;17.92;12.33;;;;;;;11.29;69.96;97955.61;1752212;81;20986;-85
2021/09/22 11:56:09;;;;;;;23.45;12.33;;;;;;;11.20;70.08;97955.47;1775848;81;20996;-87
2021/09/22 11:58:37;;;;;;;18.02;11.73;;;;;;;11.13;70.29;97957.89;1730553;82;21070;-87